Terminal Aerodrome Forecast
Issued by NWS Charleston, WV

Home | Current Version | Previous Version | Text Only | Print | Product List | Glossary On
Versions: 1 2 3 4 5 6 7 8 9 10 11 12 13 14 15 16 17 18 19 20 21 22 23 24 25
000
FTUS41 KRLX 221120
TAFBKW
TAF
KBKW 221120Z 2212/2312 13007KT P6SM BKN015 BKN070
     FM221300 13010KT P6SM SCT020 OVC050
     FM221500 13010KT 6SM -SHRA OVC035
     FM221900 13010KT P6SM -SHRA OVC020
     FM230200 09008KT 4SM -SHRA BR SCT008 OVC012
     FM230800 08008KT 3SM -SHRA BR OVC008=

USA.gov is the U.S. government's official web portal to all federal, state and local government web resources and services.